createdAt,value
2019-05-26T05:11:54.408Z,8.80
2019-05-26T05:21:54.034Z,9.04
2019-05-26T05:31:53.453Z,9.28
2019-05-26T05:41:53.586Z,9.63
2019-05-26T05:51:53.677Z,10.43
2019-05-26T06:01:54.079Z,11.12
2019-05-26T06:11:57.087Z,12.10
2019-05-26T06:21:55.668Z,11.68
2019-05-26T06:31:54.367Z,12.25
2019-05-26T06:41:53.745Z,12.17
2019-05-26T06:51:53.912Z,11.68
2019-05-26T07:01:53.472Z,11.95
2019-05-26T07:11:59.951Z,12.96
2019-05-26T07:21:53.814Z,12.68
2019-05-26T07:31:52.778Z,12.92
2019-05-26T07:42:09.252Z,12.64
2019-05-26T07:51:53.819Z,14.03
2019-05-26T08:01:54.594Z,14.17
2019-05-26T08:11:55.702Z,14.26
2019-05-26T08:21:54.694Z,14.36
2019-05-26T08:31:55.537Z,14.78
2019-05-26T08:41:55.598Z,15.38
2019-05-26T08:51:53.854Z,15.11
2019-05-26T09:01:53.911Z,17.34
2019-05-26T09:11:55.616Z,17.05
2019-05-26T09:21:53.630Z,16.94
2019-05-26T09:31:54.288Z,17.02
2019-05-26T09:42:03.256Z,15.32
2019-05-26T09:51:53.849Z,15.10
2019-05-26T10:01:55.764Z,15.61
2019-05-26T10:11:54.106Z,15.40
2019-05-26T10:21:53.977Z,15.47
2019-05-26T10:31:53.807Z,16.32
2019-05-26T10:41:52.981Z,16.48
2019-05-26T10:51:52.944Z,16.65
2019-05-26T11:01:53.007Z,18.23
2019-05-26T11:11:52.982Z,17.83
2019-05-26T11:21:53.362Z,16.11
2019-05-26T11:31:53.374Z,18.90
2019-05-26T11:41:56.301Z,19.49
2019-05-26T11:51:52.225Z,19.22
2019-05-26T12:02:06.637Z,18.70
2019-05-26T12:11:53.996Z,17.17
2019-05-26T12:21:55.457Z,19.57
2019-05-26T12:31:55.393Z,19.63
2019-05-26T12:41:55.055Z,19.34
2019-05-26T12:51:54.109Z,19.78
2019-05-26T13:01:53.560Z,19.73
2019-05-26T13:11:55.682Z,20.53
2019-05-26T13:21:55.350Z,20.52
2019-05-26T13:31:53.524Z,20.17
2019-05-26T13:41:55.284Z,20.49
2019-05-26T13:51:53.401Z,19.88
2019-05-26T14:01:53.351Z,19.90
2019-05-26T14:11:54.062Z,20.10
2019-05-26T14:21:53.422Z,20.79
2019-05-26T14:31:55.382Z,21.05
2019-05-26T14:41:53.454Z,20.76
2019-05-26T14:51:55.776Z,21.36
2019-05-26T15:01:55.337Z,21.14
2019-05-26T15:11:53.474Z,20.81
2019-05-26T15:21:53.433Z,21.28
2019-05-26T15:31:53.619Z,20.82
2019-05-26T15:41:53.979Z,20.56
2019-05-26T15:51:54.725Z,20.68
2019-05-26T16:01:55.369Z,20.70
2019-05-26T16:11:53.484Z,20.32
2019-05-26T16:21:56.227Z,18.10
2019-05-26T16:31:54.039Z,19.09
2019-05-26T16:41:56.039Z,19.11
2019-05-26T16:51:55.222Z,19.24
2019-05-26T17:01:54.245Z,18.56
2019-05-26T17:11:54.212Z,18.61
2019-05-26T17:21:53.868Z,18.99
2019-05-26T17:31:54.050Z,18.47
2019-05-26T17:41:54.226Z,19.21
2019-05-26T17:51:54.188Z,18.67
2019-05-26T18:01:52.783Z,19.02
2019-05-26T18:11:57.250Z,18.87
2019-05-26T18:21:56.036Z,18.44
2019-05-26T18:31:55.319Z,18.52
2019-05-26T18:41:57.923Z,18.62
2019-05-26T18:51:55.987Z,18.29
2019-05-26T19:01:52.273Z,17.95
